Time;durP1;ratioP1;P1;durP2;ratioP2;P2;SDS_P1;SDS_P2;PMS_P1;PMS_P2;Temp;Humidity;BMP_temperature;BMP_pressure;BME280_temperature;BME280_humidity;BME280_pressure;Samples;Min_cycle;Max_cycle;Signal;HPM_P1;HPM_P2
2021/05/09 00:01:00;;;;;;;13.07;5.00;;;;;;;;;;5010795;28;20034;-64
2021/05/09 00:03:26;;;;;;;13.38;5.18;;;;;;;;;;5012716;28;20026;-67
2021/05/09 00:05:52;;;;;;;15.02;5.18;;;;;;;;;;5012794;28;20548;-64
2021/05/09 00:08:18;;;;;;;14.88;5.97;;;;;;;;;;5011886;28;20021;-67
2021/05/09 00:10:44;;;;;;;13.68;4.97;;;;;;;;;;5013586;28;20033;-66
2021/05/09 00:13:10;;;;;;;14.27;5.13;;;;;;;;;;5012800;28;20133;-66
2021/05/09 00:15:36;;;;;;;13.60;5.07;;;;;;;;;;5012843;28;20184;-66
2021/05/09 00:18:03;;;;;;;14.00;5.25;;;;;;;;;;5013013;28;20026;-66
2021/05/09 00:20:29;;;;;;;13.85;4.85;;;;;;;;;;5013420;28;20057;-66
2021/05/09 00:22:55;;;;;;;13.65;4.78;;;;;;;;;;5014254;28;20378;-67
2021/05/09 00:25:21;;;;;;;12.98;4.97;;;;;;;;;;5014130;28;20100;-64
2021/05/09 00:27:47;;;;;;;13.55;5.07;;;;;;;;;;5014112;28;20506;-65
2021/05/09 00:30:15;;;;;;;12.75;4.72;;;;;;;;;;5013236;28;20030;-65
2021/05/09 00:32:41;;;;;;;13.23;4.78;;;;;;;;;;5014087;28;20029;-67
2021/05/09 00:35:07;;;;;;;16.38;5.25;;;;;;;;;;5013846;28;20510;-67
2021/05/09 00:37:34;;;;;;;13.48;4.95;;;;;;;;;;5013065;28;20472;-65
2021/05/09 00:40:00;;;;;;;16.80;5.25;;;;;;;;;;5013054;28;20478;-66
2021/05/09 00:42:26;;;;;;;12.80;4.85;;;;;;;;;;5013923;28;20037;-66
2021/05/09 00:44:52;;;;;;;15.05;5.30;;;;;;;;;;5013773;28;20026;-64
2021/05/09 00:47:19;;;;;;;12.63;4.85;;;;;;;;;;5012554;28;20022;-65
2021/05/09 00:49:45;;;;;;;16.63;5.20;;;;;;;;;;5012551;28;20026;-65
2021/05/09 00:52:11;;;;;;;13.13;4.78;;;;;;;;;;5013567;28;20619;-66
2021/05/09 00:54:49;;;;;;;15.30;5.53;;;;;;;;;;5013669;28;20033;-65
2021/05/09 00:57:16;;;;;;;16.02;5.93;;;;;;;;;;5013712;28;20474;-64
2021/05/09 00:59:43;;;;;;;12.40;5.18;;;;;;;;;;5012640;28;20109;-64
2021/05/09 01:02:10;;;;;;;13.27;4.82;;;;;;;;;;5013301;28;20038;-65
2021/05/09 01:04:36;;;;;;;14.40;4.97;;;;;;;;;;5012845;28;20053;-65
2021/05/09 01:07:03;;;;;;;15.93;4.85;;;;;;;;;;5012309;28;20100;-64
2021/05/09 01:11:57;;;;;;;15.82;5.75;;;;;;;;;;5032723;28;20037;-65
2021/05/09 01:14:23;;;;;;;13.88;5.32;;;;;;;;;;5017272;28;20401;-63
2021/05/09 01:16:49;;;;;;;14.00;4.88;;;;;;;;;;5035200;28;20018;-64
2021/05/09 01:19:15;;;;;;;13.20;5.03;;;;;;;;;;5016681;28;20033;-64
2021/05/09 01:21:41;;;;;;;16.13;5.32;;;;;;;;;;5033114;28;20466;-62
2021/05/09 01:24:08;;;;;;;13.23;4.88;;;;;;;;;;5050056;28;20503;-63
2021/05/09 01:26:34;;;;;;;14.30;5.20;;;;;;;;;;5049966;28;20022;-63
2021/05/09 01:29:00;;;;;;;14.02;4.93;;;;;;;;;;5033924;28;20029;-62
2021/05/09 01:31:26;;;;;;;14.50;4.97;;;;;;;;;;5049179;28;20087;-64
2021/05/09 01:33:52;;;;;;;14.45;5.15;;;;;;;;;;5034208;28;20032;-64
2021/05/09 01:36:18;;;;;;;13.73;5.25;;;;;;;;;;5034320;28;20029;-65
2021/05/09 01:38:44;;;;;;;14.48;5.57;;;;;;;;;;5048752;28;20028;-64
2021/05/09 01:41:10;;;;;;;14.05;5.15;;;;;;;;;;5049259;28;20025;-63
2021/05/09 01:43:36;;;;;;;15.77;5.18;;;;;;;;;;5049385;28;20113;-63
2021/05/09 01:46:02;;;;;;;13.85;5.05;;;;;;;;;;5033971;28;20026;-64
2021/05/09 01:48:28;;;;;;;14.95;5.47;;;;;;;;;;5034044;28;20529;-64
2021/05/09 01:50:54;;;;;;;16.17;6.22;;;;;;;;;;5048570;28;20112;-64
2021/05/09 01:53:20;;;;;;;13.55;4.82;;;;;;;;;;5033997;28;20032;-61
2021/05/09 01:55:47;;;;;;;15.10;5.10;;;;;;;;;;5034217;28;20025;-65
2021/05/09 01:58:13;;;;;;;14.80;5.20;;;;;;;;;;5033913;28;20067;-64
2021/05/09 02:00:39;;;;;;;13.68;4.95;;;;;;;;;;5048328;28;20113;-64
2021/05/09 02:03:05;;;;;;;14.55;5.53;;;;;;;;;;5033736;28;20045;-64
2021/05/09 02:05:31;;;;;;;13.65;4.82;;;;;;;;;;5033692;28;20393;-64
2021/05/09 02:07:57;;;;;;;14.35;5.25;;;;;;;;;;5048861;28;20120;-64
2021/05/09 02:10:23;;;;;;;27.75;16.00;;;;;;;;;;5032824;28;20076;-65
2021/05/09 02:12:49;;;;;;;15.43;5.55;;;;;;;;;;5049010;28;20623;-62
2021/05/09 02:15:15;;;;;;;14.00;5.25;;;;;;;;;;5048763;28;20116;-63
2021/05/09 02:17:42;;;;;;;15.25;5.03;;;;;;;;;;5032543;28;20029;-62
2021/05/09 02:20:09;;;;;;;13.93;5.50;;;;;;;;;;5047182;28;20037;-62
2021/05/09 02:22:35;;;;;;;15.30;5.40;;;;;;;;;;5033584;28;20026;-62
2021/05/09 02:25:01;;;;;;;14.45;5.22;;;;;;;;;;5033467;28;20033;-62
2021/05/09 02:27:27;;;;;;;14.07;5.15;;;;;;;;;;5033541;28;20029;-62
2021/05/09 02:29:53;;;;;;;15.15;5.13;;;;;;;;;;5048067;28;20120;-61
2021/05/09 02:32:19;;;;;;;12.75;5.28;;;;;;;;;;5048390;28;20501;-61
2021/05/09 02:34:45;;;;;;;14.60;5.15;;;;;;;;;;5033165;28;20033;-63
2021/05/09 02:37:11;;;;;;;12.85;5.07;;;;;;;;;;5033207;28;20033;-62
2021/05/09 02:39:37;;;;;;;14.57;5.45;;;;;;;;;;5032095;28;20025;-63
2021/05/09 02:42:03;;;;;;;12.43;4.60;;;;;;;;;;5049117;28;20032;-60
2021/05/09 02:44:29;;;;;;;16.42;5.07;;;;;;;;;;5048583;28;20481;-62
2021/05/09 02:46:55;;;;;;;16.10;5.95;;;;;;;;;;5031594;28;20152;-62
2021/05/09 02:49:21;;;;;;;16.15;5.00;;;;;;;;;;5032116;28;20037;-63
2021/05/09 02:51:47;;;;;;;13.20;5.15;;;;;;;;;;5048377;28;20033;-61
2021/05/09 02:54:13;;;;;;;14.80;5.32;;;;;;;;;;5048189;28;20025;-64
2021/05/09 02:56:39;;;;;;;15.40;5.93;;;;;;;;;;5032778;28;20033;-64
2021/05/09 02:59:05;;;;;;;15.65;5.30;;;;;;;;;;5031932;28;20056;-62
2021/05/09 03:01:31;;;;;;;15.43;5.28;;;;;;;;;;5032563;28;20111;-61
2021/05/09 03:03:57;;;;;;;14.00;5.50;;;;;;;;;;5032713;28;20100;-64
2021/05/09 03:06:23;;;;;;;13.50;5.03;;;;;;;;;;5032467;28;20028;-64
2021/05/09 03:08:49;;;;;;;17.50;6.05;;;;;;;;;;5032199;28;20454;-63
2021/05/09 03:11:15;;;;;;;14.77;5.40;;;;;;;;;;5032091;28;20036;-62
2021/05/09 03:13:41;;;;;;;13.40;5.93;;;;;;;;;;5032304;28;20044;-64
2021/05/09 03:16:07;;;;;;;14.65;5.20;;;;;;;;;;5032928;28;20028;-63
2021/05/09 03:18:33;;;;;;;13.65;4.93;;;;;;;;;;5032494;28;20032;-63
2021/05/09 03:20:59;;;;;;;14.13;5.00;;;;;;;;;;5031803;28;20029;-63
2021/05/09 03:23:26;;;;;;;15.05;5.53;;;;;;;;;;5048183;28;20045;-63
2021/05/09 03:25:52;;;;;;;14.60;5.18;;;;;;;;;;5032271;28;20029;-62
2021/05/09 03:28:18;;;;;;;15.63;5.20;;;;;;;;;;5047605;28;20021;-62
2021/05/09 03:30:44;;;;;;;14.45;5.32;;;;;;;;;;5031358;28;20071;-65
2021/05/09 03:33:10;;;;;;;15.32;5.55;;;;;;;;;;5047737;28;20519;-62
2021/05/09 03:35:36;;;;;;;13.20;5.00;;;;;;;;;;5047526;28;20036;-62
2021/05/09 03:38:02;;;;;;;15.30;5.60;;;;;;;;;;5031987;28;20030;-64
2021/05/09 03:40:28;;;;;;;13.55;5.30;;;;;;;;;;5046048;28;20030;-64
2021/05/09 03:42:55;;;;;;;14.10;5.70;;;;;;;;;;5031973;28;20036;-62
2021/05/09 03:45:21;;;;;;;13.98;5.40;;;;;;;;;;5047494;28;20053;-62
2021/05/09 03:47:46;;;;;;;14.25;5.53;;;;;;;;;;5032111;28;20025;-63
2021/05/09 03:50:13;;;;;;;13.30;5.50;;;;;;;;;;5031332;28;20374;-62
2021/05/09 03:52:39;;;;;;;14.82;5.72;;;;;;;;;;5031985;28;20050;-62
2021/05/09 03:55:05;;;;;;;17.85;5.25;;;;;;;;;;5031839;28;20091;-62
2021/05/09 03:57:31;;;;;;;14.70;5.55;;;;;;;;;;5032296;28;20389;-62
2021/05/09 03:59:57;;;;;;;15.73;6.07;;;;;;;;;;5031075;28;20036;-64
2021/05/09 04:02:23;;;;;;;13.90;5.28;;;;;;;;;;5047220;28;20053;-64
2021/05/09 04:04:49;;;;;;;15.85;5.70;;;;;;;;;;5032070;28;20126;-64
2021/05/09 04:07:15;;;;;;;14.23;5.95;;;;;;;;;;5032132;28;20144;-64
2021/05/09 04:09:41;;;;;;;20.15;6.57;;;;;;;;;;5030908;28;20064;-64
2021/05/09 04:12:08;;;;;;;14.48;5.60;;;;;;;;;;5047569;28;20038;-64
2021/05/09 04:14:34;;;;;;;13.70;5.53;;;;;;;;;;5031912;28;20040;-62
2021/05/09 04:17:00;;;;;;;14.40;5.72;;;;;;;;;;5031672;28;20504;-64
2021/05/09 04:19:26;;;;;;;15.45;6.10;;;;;;;;;;5046180;28;20025;-64
2021/05/09 04:21:52;;;;;;;15.05;5.40;;;;;;;;;;5031694;28;20076;-63
2021/05/09 04:24:18;;;;;;;14.90;5.90;;;;;;;;;;5047098;28;20018;-63
2021/05/09 04:26:44;;;;;;;16.17;5.90;;;;;;;;;;5032461;28;20029;-63
2021/05/09 04:29:10;;;;;;;14.63;5.80;;;;;;;;;;5032030;28;20393;-64
2021/05/09 04:31:36;;;;;;;16.38;5.43;;;;;;;;;;5033166;28;20030;-64
2021/05/09 04:34:02;;;;;;;15.07;5.45;;;;;;;;;;5033420;28;20026;-64
2021/05/09 04:36:28;;;;;;;13.63;5.13;;;;;;;;;;5033755;28;20117;-64
2021/05/09 04:38:54;;;;;;;14.52;5.32;;;;;;;;;;5048235;28;20481;-63
2021/05/09 04:41:20;;;;;;;17.17;5.65;;;;;;;;;;5048973;28;20032;-63
2021/05/09 04:43:46;;;;;;;13.93;5.18;;;;;;;;;;5036895;28;20032;-64
2021/05/09 04:46:12;;;;;;;13.02;4.72;;;;;;;;;;5036783;28;20022;-63
2021/05/09 04:48:38;;;;;;;14.07;5.15;;;;;;;;;;5035642;28;20025;-63
2021/05/09 04:51:04;;;;;;;13.80;6.10;;;;;;;;;;5035506;28;20041;-64
2021/05/09 04:53:31;;;;;;;15.02;5.68;;;;;;;;;;5050595;28;20556;-64
2021/05/09 04:55:58;;;;;;;13.77;5.32;;;;;;;;;;5035589;28;20030;-63
2021/05/09 04:58:25;;;;;;;16.05;5.25;;;;;;;;;;5050953;28;20033;-64
2021/05/09 05:00:52;;;;;;;15.43;5.10;;;;;;;;;;5034412;28;20025;-64
2021/05/09 05:03:18;;;;;;;14.77;5.18;;;;;;;;;;5034567;28;20079;-63
2021/05/09 05:05:45;;;;;;;13.57;5.57;;;;;;;;;;5034564;28;20025;-62
2021/05/09 05:08:11;;;;;;;13.98;5.25;;;;;;;;;;5034467;28;20072;-63
2021/05/09 05:10:37;;;;;;;14.23;5.55;;;;;;;;;;5034505;28;20489;-65
2021/05/09 05:13:03;;;;;;;13.02;5.00;;;;;;;;;;5034996;28;20025;-63
2021/05/09 05:15:29;;;;;;;14.15;5.60;;;;;;;;;;5034676;28;20129;-64
2021/05/09 05:17:55;;;;;;;14.60;5.10;;;;;;;;;;5034701;28;20025;-61
2021/05/09 05:20:21;;;;;;;15.15;5.80;;;;;;;;;;5049196;28;20040;-63
2021/05/09 05:22:47;;;;;;;13.30;4.95;;;;;;;;;;5035164;28;20026;-64
2021/05/09 05:25:13;;;;;;;14.75;6.00;;;;;;;;;;5050466;28;20037;-64
2021/05/09 05:27:39;;;;;;;13.52;5.35;;;;;;;;;;5035038;28;20374;-63
2021/05/09 05:30:05;;;;;;;12.57;5.30;;;;;;;;;;5034572;28;20037;-63
2021/05/09 05:32:31;;;;;;;15.48;5.93;;;;;;;;;;5035386;28;20033;-63
2021/05/09 05:34:57;;;;;;;16.88;5.85;;;;;;;;;;5035004;28;20444;-62
2021/05/09 05:37:23;;;;;;;13.95;5.20;;;;;;;;;;5034235;28;20025;-63
2021/05/09 05:39:49;;;;;;;14.45;5.10;;;;;;;;;;5033694;28;20374;-63
2021/05/09 05:42:15;;;;;;;16.10;5.85;;;;;;;;;;5034411;28;20025;-63
2021/05/09 05:44:41;;;;;;;13.52;5.25;;;;;;;;;;5049635;28;20030;-63
2021/05/09 05:47:07;;;;;;;14.15;5.35;;;;;;;;;;5034248;28;20036;-63
2021/05/09 05:49:33;;;;;;;14.27;5.40;;;;;;;;;;5048765;28;20401;-61
2021/05/09 05:51:59;;;;;;;15.65;5.68;;;;;;;;;;5033679;28;20030;-62
2021/05/09 05:54:25;;;;;;;14.02;5.07;;;;;;;;;;5034070;28;20489;-62
2021/05/09 05:56:51;;;;;;;14.90;4.95;;;;;;;;;;5034205;28;20045;-63
2021/05/09 05:59:17;;;;;;;14.15;5.13;;;;;;;;;;5033568;28;20111;-62
2021/05/09 06:01:43;;;;;;;13.07;4.88;;;;;;;;;;5049323;28;20071;-63
2021/05/09 06:04:09;;;;;;;14.05;5.22;;;;;;;;;;5049273;28;20535;-63
2021/05/09 06:06:35;;;;;;;15.13;4.93;;;;;;;;;;5033735;28;20108;-63
2021/05/09 06:09:03;;;;;;;12.75;4.93;;;;;;;;;;5048514;28;20021;-64
2021/05/09 06:11:29;;;;;;;15.43;4.93;;;;;;;;;;5033648;28;20486;-63
2021/05/09 06:13:55;;;;;;;14.02;4.82;;;;;;;;;;5048655;28;20037;-63
2021/05/09 06:16:20;;;;;;;11.60;4.50;;;;;;;;;;5048522;28;20458;-63
2021/05/09 06:18:46;;;;;;;12.68;4.60;;;3.40;99.90;;;;;;5032308;28;20022;-63
2021/05/09 06:21:12;;;;;;;14.50;4.70;;;14.80;99.90;;;;;;5032253;28;20096;-64
2021/05/09 06:23:37;;;;;;;11.60;4.50;;;14.70;99.90;;;;;;5032910;28;20075;-63
2021/05/09 06:26:03;;;;;;;12.80;4.80;;;14.80;99.90;;;;;;5033071;28;20053;-64
2021/05/09 06:28:28;;;;;;;12.18;4.32;;;14.90;99.90;;;;;;5031816;28;20458;-62
2021/05/09 06:30:54;;;;;;;13.32;4.85;;;14.90;99.90;;;;;;5032831;28;20026;-62
2021/05/09 06:33:20;;;;;;;13.77;4.93;;;;;;;;;;5031570;28;20061;-64
2021/05/09 06:35:46;;;;;;;12.38;4.72;;;;;;;;;;5032857;28;20554;-63
2021/05/09 06:38:12;;;;;;;12.23;4.35;;;;;;;;;;5048192;28;20075;-62
2021/05/09 06:40:38;;;;;;;11.60;4.30;;;;;;;;;;5047522;28;20121;-63
2021/05/09 06:43:06;;;;;;;13.05;5.10;;;;;;;;;;5032913;28;20494;-63
2021/05/09 06:45:35;;;;;;;13.85;4.72;;;;;;;;;;5032837;28;20027;-63
2021/05/09 06:48:02;;;;;;;12.73;4.47;;;;;;;;;;5047935;28;20076;-63
2021/05/09 06:50:30;;;;;;;14.85;4.55;;;;;;;;;;5031978;28;20433;-64
2021/05/09 06:52:56;;;;;;;12.85;4.20;;;;;;;;;;5047891;28;20025;-62
2021/05/09 06:55:22;;;;;;;25.10;5.82;;;;;;;;;;5047996;28;20040;-64
2021/05/09 06:57:48;;;;;;;13.60;5.30;;;15.00;99.90;;;;;;5032591;28;20056;-64
2021/05/09 07:00:16;;;;;;;13.55;4.90;;;16.50;99.90;;;;;;5031593;28;20025;-63
2021/05/09 07:02:41;;;;;;;14.43;4.20;;;16.50;99.90;;;;;;5031246;28;20021;-63
2021/05/09 07:05:08;;;;;;;13.48;4.68;;;;;;;;;;5031790;28;20104;-64
2021/05/09 07:07:55;;;;;;;11.43;4.60;;;16.50;99.90;;;;;;5047552;28;20062;-62
2021/05/09 07:10:22;;;;;;;11.90;4.80;;;16.60;99.90;;;;;;5050513;22;20044;-59
2021/05/09 07:12:48;;;;;;;11.48;4.72;;;;;;;;;;5072917;28;20108;-61
2021/05/09 07:15:25;;;;;;;13.30;5.55;;;;;;;;;;5072198;28;20504;-64
2021/05/09 07:18:02;;;;;;;12.32;4.47;;;;;;;;;;5072043;28;20020;-60
2021/05/09 07:20:30;;;;;;;14.67;4.93;;;;;;;;;;5070711;28;20031;-61
2021/05/09 07:22:57;;;;;;;12.23;4.50;;;;;;;;;;5072120;28;20635;-61
2021/05/09 07:25:23;;;;;;;14.75;4.80;;;;;;;;;;5071954;28;20032;-59
2021/05/09 07:27:49;;;;;;;16.83;5.28;;;;;;;;;;5070490;28;20046;-62
2021/05/09 07:30:16;;;;;;;12.68;4.97;;;;;;;;;;5071000;28;20438;-62
2021/05/09 07:32:42;;;;;;;11.95;4.70;;;;;;;;;;5071924;28;20373;-62
2021/05/09 07:35:08;;;;;;;12.57;4.70;;;;;;;;;;5072954;28;20037;-61
2021/05/09 07:37:34;;;;;;;13.13;4.90;;;;;;;;;;5072907;28;20200;-61
2021/05/09 07:40:00;;;;;;;14.90;4.85;;;;;;;;;;5071216;28;20566;-61
2021/05/09 07:42:26;;;;;;;12.02;5.10;;;;;;;;;;5071567;28;20124;-62
2021/05/09 07:44:55;;;;;;;11.48;4.72;;;;;;;;;;5070636;28;20476;-59
2021/05/09 07:47:21;;;;;;;12.43;4.68;;;;;;;;;;5070439;28;20112;-61
2021/05/09 07:49:47;;;;;;;12.05;4.85;;;;;;;;;;5069530;28;20446;-62
2021/05/09 07:52:13;;;;;;;14.27;5.10;;;;;;;;;;5069803;28;20029;-62
2021/05/09 07:54:39;;;;;;;11.25;4.53;;;;;;;;;;5063696;28;20036;-64
2021/05/09 07:57:06;;;;;;;12.23;5.18;;;;;;;;;;5052241;28;20476;-63
2021/05/09 07:59:33;;;;;;;12.52;5.55;;;;;;;;;;5050749;28;20538;-65
2021/05/09 08:01:59;;;;;;;15.50;5.22;;;;;;;;;;5059466;28;20137;-65
2021/05/09 08:04:25;;;;;;;13.95;5.75;;;;;;;;;;5070093;28;20056;-64
2021/05/09 08:06:51;;;;;;;13.00;5.38;;;;;;;;;;5071560;28;20021;-65
2021/05/09 08:09:17;;;;;;;11.07;4.93;;;;;;;;;;5070102;28;20128;-65
2021/05/09 08:11:43;;;;;;;13.52;5.75;;;;;;;;;;5053189;28;20033;-65
2021/05/09 08:14:09;;;;;;;14.55;5.00;;;;;;;;;;5049969;28;20029;-66
2021/05/09 08:16:35;;;;;;;13.40;5.45;;;;;;;;;;5054046;28;20469;-65
2021/05/09 08:19:00;;;;;;;13.05;5.18;;;;;;;;;;5053144;28;20087;-64
2021/05/09 08:21:27;;;;;;;12.65;5.20;;;;;;;;;;5057996;28;20025;-65
2021/05/09 08:23:53;;;;;;;11.48;5.30;;;;;;;;;;5053578;28;20048;-65
2021/05/09 08:26:19;;;;;;;11.68;5.00;;;;;;;;;;5070231;28;20028;-65
2021/05/09 08:28:44;;;;;;;12.25;5.43;;;;;;;;;;5072798;28;20021;-65
2021/05/09 08:31:12;;;;;;;13.43;5.38;;;;;;;;;;5073450;28;20036;-65
2021/05/09 08:33:38;;;;;;;15.70;5.88;;;;;;;;;;5068560;28;20542;-66
2021/05/09 08:36:05;;;;;;;13.52;5.80;;;;;;;;;;5063419;28;20033;-65
2021/05/09 08:38:31;;;;;;;12.85;5.60;;;;;;;;;;5072853;28;20101;-65
2021/05/09 08:40:58;;;;;;;13.93;6.40;;;;;;;;;;5069600;28;20454;-66
2021/05/09 08:43:24;;;;;;;13.00;6.45;;;;;;;;;;5068407;28;20499;-65
2021/05/09 08:45:50;;;;;;;12.82;6.60;;;;;;;;;;5073704;28;20021;-66
2021/05/09 08:48:19;;;;;;;13.75;6.47;;;;;;;;;;5073622;28;20017;-65
2021/05/09 08:50:46;;;;;;;12.52;6.38;;;;;;;;;;5073150;28;20017;-65
2021/05/09 08:53:15;;;;;;;13.77;6.78;;;;;;;;;;5071510;28;20028;-66
2021/05/09 08:55:41;;;;;;;13.75;6.75;;;;;;;;;;5071074;28;20059;-65
2021/05/09 08:58:09;;;;;;;14.68;7.47;;;;;;;;;;5072572;28;20020;-66
2021/05/09 09:00:35;;;;;;;14.80;8.10;;;;;;;;;;5073631;28;20017;-67
2021/05/09 09:03:03;;;;;;;15.38;8.15;;;;;;;;;;5073526;28;20369;-67
2021/05/09 09:05:39;;;;;;;13.68;7.80;;;;;;;;;;5073610;28;20520;-66
2021/05/09 09:08:05;;;;;;;14.13;7.90;;;;;;;;;;5067631;28;20056;-67
2021/05/09 09:10:40;;;;;;;15.60;8.40;;;;;;;;;;5063740;28;20459;-66
2021/05/09 09:13:25;;;;;;;14.75;8.48;;;;;;;;;;5064162;28;20074;-67
2021/05/09 09:15:52;;;;;;;14.75;8.20;;;;;;;;;;5064719;28;20024;-66
2021/05/09 09:18:34;;;;;;;14.27;8.25;;;;;;;;;;5062027;28;20024;-64
2021/05/09 09:21:18;;;;;;;15.02;8.60;;;;;;;;;;5063883;28;20024;-65
2021/05/09 09:23:45;;;;;;;14.73;8.73;;;;;;;;;;5063994;28;20199;-66
2021/05/09 09:26:27;;;;;;;15.32;7.93;;;;;;;;;;5062643;28;20447;-65
2021/05/09 09:28:53;;;;;;;15.43;8.10;;;;;;;;;;5060349;28;20071;-65
2021/05/09 09:31:39;;;;;;;14.07;7.90;;;;;;;;;;5062197;28;20362;-68
2021/05/09 09:34:05;;;;;;;15.18;8.18;;;;;;;;;;5063136;28;20090;-67
2021/05/09 09:36:32;;;;;;;15.60;8.60;;;;;;;;;;5062820;28;20025;-67
2021/05/09 09:38:58;;;;;;;14.18;8.38;;;;;;;;;;5059995;28;20127;-66
2021/05/09 09:41:24;;;;;;;15.18;8.55;;;;;;;;;;5055786;28;20072;-66
2021/05/09 09:44:04;;;;;;;15.73;9.10;;;;;;;;;;5053195;28;20031;-66
2021/05/09 09:46:37;;;;;;;15.27;9.00;;;;;;;;;;5054231;28;20469;-70
2021/05/09 09:49:04;;;;;;;17.23;9.00;;;;;;;;;;5051212;28;20057;-68
2021/05/09 09:51:47;;;;;;;15.02;9.18;;;;;;;;;;5053337;28;20099;-68
2021/05/09 09:54:29;;;;;;;15.38;9.30;;;;;;;;;;5071357;28;20020;-64
2021/05/09 09:56:55;;;;;;;15.35;9.00;;;;;;;;;;5066537;28;20611;-64
2021/05/09 09:59:21;;;;;;;15.52;9.15;;;;;;;;;;5068740;28;20107;-65
2021/05/09 10:01:47;;;;;;;14.15;8.23;;;;;;;;;;5073017;28;20029;-64
2021/05/09 10:04:13;;;;;;;15.25;8.77;;;;;;;;;;5072729;28;20035;-65
2021/05/09 10:06:40;;;;;;;14.95;8.98;;;;;;;;;;5072458;28;20021;-65
2021/05/09 10:09:06;;;;;;;15.10;8.90;;;;;;;;;;5066488;28;20033;-65
2021/05/09 10:11:33;;;;;;;16.42;9.00;;;;;;;;;;5061093;28;20031;-63
2021/05/09 10:13:59;;;;;;;15.07;8.95;;;;;;;;;;5059098;28;20499;-64
2021/05/09 10:16:28;;;;;;;15.20;9.18;;;;;;;;;;5053038;28;20032;-64
2021/05/09 10:18:56;;;;;;;14.57;9.00;;;;;;;;;;5054403;28;20109;-63
2021/05/09 10:21:29;;;;;;;16.08;9.23;;;;;;;;;;5070464;28;20492;-65
2021/05/09 10:24:10;;;;;;;15.23;9.10;;;;;;;;;;5071304;28;20032;-64
2021/05/09 10:26:48;;;;;;;14.73;9.05;;;;;;;;;;5072376;28;20012;-65
2021/05/09 10:29:37;;;;;;;16.98;8.52;;;16.70;99.90;;;;;;5069886;28;20029;-64
2021/05/09 10:32:21;;;;;;;15.15;9.05;;;25.30;90.10;;;;;;5071448;28;20133;-64
2021/05/09 10:34:56;;;;;;;14.60;8.98;;;25.40;89.40;;;;;;5072668;28;20031;-65
2021/05/09 10:37:44;;;;;;;15.02;9.60;;;25.40;89.80;;;;;;5072457;28;20030;-65
2021/05/09 10:40:22;;;;;;;14.85;9.38;;;25.70;89.10;;;;;;5070457;28;20036;-65
2021/05/09 10:43:09;;;;;;;16.03;9.23;;;25.90;88.40;;;;;;5071099;28;20024;-66
2021/05/09 10:45:34;;;;;;;15.57;9.30;;;26.00;86.30;;;;;;5072167;28;20029;-66
2021/05/09 10:48:22;;;;;;;15.82;9.45;;;26.20;85.80;;;;;;5072087;28;20377;-65
2021/05/09 10:50:50;;;;;;;16.00;9.40;;;;;;;;;;5071187;28;20111;-65
2021/05/09 10:56:08;;;;;;;14.68;9.70;;;;;;;;;;5071939;28;20032;-65
2021/05/09 10:58:40;;;;;;;14.68;9.70;;;;;;;;;;5070420;28;20028;-66
2021/05/09 11:01:09;;;;;;;15.10;9.52;;;;;;;;;;5070729;28;20159;-66
2021/05/09 11:03:35;;;;;;;16.35;9.73;;;;;;;;;;5071899;28;20494;-65
2021/05/09 11:06:09;;;;;;;16.48;10.52;;;;;;;;;;5070372;28;20028;-66
2021/05/09 11:08:43;;;;;;;15.93;9.95;;;;;;;;;;5071885;28;20016;-66
2021/05/09 11:11:19;;;;;;;14.75;9.43;;;;;;;;;;5071521;28;20040;-66
2021/05/09 11:14:01;;;;;;;15.05;9.57;;;;;;;;;;5070539;28;20452;-66
2021/05/09 11:16:34;;;;;;;16.13;9.77;;;;;;;;;;5071927;28;20459;-64
2021/05/09 11:19:00;;;;;;;15.30;9.90;;;;;;;;;;5070948;28;20103;-66
2021/05/09 11:21:31;;;;;;;19.60;13.35;;;;;;;;;;5072377;28;20031;-66
2021/05/09 11:23:57;;;;;;;14.80;9.82;;;;;;;;;;5071589;28;20021;-66
2021/05/09 11:26:24;;;;;;;17.05;11.70;;;;;;;;;;5072688;28;20012;-66
2021/05/09 11:29:05;;;;;;;16.88;9.93;;;;;;;;;;5071173;28;20075;-66
2021/05/09 11:31:32;;;;;;;17.02;10.50;;;;;;;;;;5071595;28;20029;-66
2021/05/09 11:33:58;;;;;;;15.93;10.73;;;;;;;;;;5071616;28;20051;-64
2021/05/09 11:36:24;;;;;;;17.77;10.00;;;;;;;;;;5070074;28;20103;-65
2021/05/09 11:38:50;;;;;;;15.88;10.10;;;;;;;;;;5069520;28;20051;-65
2021/05/09 11:41:16;;;;;;;15.57;10.02;;;;;;;;;;5069788;28;20469;-65
2021/05/09 11:44:01;;;;;;;16.88;10.20;;;;;;;;;;5071363;28;20087;-64
2021/05/09 11:46:36;;;;;;;15.02;10.15;;;;;;;;;;5070783;28;20078;-65
2021/05/09 11:49:19;;;;;;;14.63;10.05;;;;;;;;;;5069047;28;20465;-66
2021/05/09 11:51:51;;;;;;;15.05;10.38;;;;;;;;;;5074471;28;20049;-65
2021/05/09 11:54:17;;;;;;;15.07;10.43;;;;;;;;;;5075322;28;20020;-65
2021/05/09 11:57:01;;;;;;;17.38;10.30;;;;;;;;;;5073882;28;20111;-65
2021/05/09 11:59:37;;;;;;;16.30;10.20;;;;;;;;;;5073831;28;20029;-65
2021/05/09 12:02:04;;;;;;;16.30;9.98;;;;;;;;;;5072689;28;20025;-64
2021/05/09 12:04:31;;;;;;;15.77;10.40;;;;;;;;;;5075125;28;20024;-62
2021/05/09 12:06:58;;;;;;;14.75;9.50;;;;;;;;;;5075173;28;20392;-64
2021/05/09 12:09:24;;;;;;;15.15;10.10;;;;;;;;;;5059513;28;20029;-64
2021/05/09 12:11:50;;;;;;;17.88;9.65;;;;;;;;;;5070609;28;20514;-64
2021/05/09 12:14:16;;;;;;;15.68;9.13;;;;;;;;;;5056084;28;20028;-63
2021/05/09 12:16:46;;;;;;;15.23;9.93;;;;;;;;;;5055407;28;20438;-63
2021/05/09 12:19:12;;;;;;;15.20;9.20;;;;;;;;;;5060052;28;20424;-63
2021/05/09 12:21:38;;;;;;;15.98;9.70;;;26.00;85.70;;;;;;5074405;28;20099;-64
2021/05/09 12:24:05;;;;;;;15.40;10.10;;;;;;;;;;5071819;28;20021;-64
2021/05/09 12:26:31;;;;;;;15.55;9.60;;;;;;;;;;5062417;28;20102;-62
2021/05/09 12:29:16;;;;;;;14.93;9.55;;;;;;;;;;5064033;28;20899;-64
2021/05/09 12:31:42;;;;;;;15.50;9.73;;;;;;;;;;5064762;28;20029;-63
2021/05/09 12:34:10;;;;;;;15.68;10.02;;;;;;;;;;5059100;28;20032;-63
2021/05/09 12:36:36;;;;;;;15.93;10.10;;;33.30;63.80;;;;;;5061873;28;20141;-62
2021/05/09 12:39:16;;;;;;;16.30;10.30;;;35.90;58.30;;;;;;5059046;28;20051;-63
2021/05/09 12:41:53;;;;;;;15.00;9.68;;;34.90;57.30;;;;;;5066798;28;20078;-65
2021/05/09 12:44:22;;;;;;;15.48;9.95;;;35.20;56.10;;;;;;5074550;28;20051;-62
2021/05/09 12:46:48;;;;;;;18.02;11.00;;;35.20;57.00;;;;;;5071548;28;20435;-62
2021/05/09 12:49:24;;;;;;;15.63;9.93;;;35.30;56.00;;;;;;4705026;28;10000434;-62
2021/05/09 12:51:56;;;;;;;17.25;10.63;;;35.70;55.20;;;;;;5049639;28;20114;-62
2021/05/09 12:54:30;;;;;;;15.07;10.70;;;35.80;54.30;;;;;;5058908;28;20424;-60
2021/05/09 12:57:14;;;;;;;15.82;10.32;;;35.90;54.30;;;;;;5066858;28;20104;-63
2021/05/09 12:59:47;;;;;;;17.33;10.52;;;36.20;53.70;;;;;;5069986;28;20033;-63
2021/05/09 13:02:17;;;;;;;16.88;10.43;;;36.00;53.30;;;;;;5068115;28;20024;-61
2021/05/09 13:04:51;;;;;;;15.00;10.43;;;36.50;53.40;;;;;;5069632;28;20078;-63
2021/05/09 13:07:18;;;;;;;16.27;10.60;;;36.90;53.40;;;;;;5071065;28;20547;-55
2021/05/09 13:09:46;;;;;;;14.63;10.05;;;36.00;52.30;;;;;;5070627;28;20021;-62
2021/05/09 13:12:12;;;;;;;15.07;10.13;;;33.30;52.40;;;;;;5078782;22;20421;-65
2021/05/09 13:14:44;;;;;;;15.57;11.10;;;32.00;54.90;;;;;;5049460;28;20052;-65
2021/05/09 13:17:10;;;;;;;20.63;14.95;;;32.90;56.10;;;;;;5050494;28;20140;-65
2021/05/09 13:19:38;;;;;;;16.65;10.65;;;33.00;55.70;;;;;;5049433;28;20021;-64
2021/05/09 13:22:04;;;;;;;17.23;10.88;;;33.70;55.30;;;;;;5052508;28;20096;-65
2021/05/09 13:24:29;;;;;;;16.25;10.80;;;35.10;53.10;;;;;;5052595;28;20454;-65
2021/05/09 13:26:55;;;;;;;15.65;10.02;;;35.30;52.20;;;;;;5052449;28;20049;-65
2021/05/09 13:29:21;;;;;;;14.43;9.75;;;34.90;52.60;;;;;;5051777;28;20029;-65
2021/05/09 13:31:46;;;;;;;16.52;10.65;;;33.90;51.40;;;;;;5050727;28;20498;-66
2021/05/09 13:34:12;;;;;;;16.70;10.73;;;33.00;52.70;;;;;;5047916;28;20068;-66
2021/05/09 13:36:38;;;;;;;15.80;10.13;;;33.30;52.80;;;;;;5042057;28;20067;-65
2021/05/09 13:39:04;;;;;;;15.45;9.70;;;33.30;52.50;;;;;;5041218;28;20025;-66
2021/05/09 13:41:30;;;;;;;16.58;10.18;;;33.00;52.30;;;;;;5040338;28;20026;-66
2021/05/09 13:43:56;;;;;;;16.08;10.15;;;33.80;51.80;;;;;;5042089;28;20391;-66
2021/05/09 13:46:21;;;;;;;15.10;9.98;;;34.00;51.50;;;;;;4689301;28;9999646;-64
2021/05/09 13:48:47;;;;;;;15.05;10.45;;;34.00;51.10;;;;;;5035250;28;20021;-65
2021/05/09 13:51:13;;;;;;;17.63;10.30;;;34.10;50.80;;;;;;5039588;28;20139;-65
2021/05/09 13:53:38;;;;;;;14.55;9.88;;;34.70;50.70;;;;;;5038125;28;20022;-65
2021/05/09 13:56:04;;;;;;;15.73;10.38;;;34.80;51.10;;;;;;5039508;28;20025;-64
2021/05/09 13:58:30;;;;;;;15.75;10.30;;;35.20;51.10;;;;;;5039020;28;20362;-62
2021/05/09 14:00:56;;;;;;;16.08;10.27;;;34.90;50.40;;;;;;5035484;28;20871;-65
2021/05/09 14:03:22;;;;;;;14.73;10.10;;;34.40;50.70;;;;;;5027181;28;20064;-64
2021/05/09 14:05:47;;;;;;;16.70;10.38;;;33.70;52.00;;;;;;5031247;28;20230;-65
2021/05/09 14:08:13;;;;;;;18.10;10.93;;;33.00;51.90;;;;;;5038849;28;20031;-67
2021/05/09 14:10:39;;;;;;;16.00;9.98;;;32.30;52.60;;;;;;5036006;28;20022;-66
2021/05/09 14:13:05;;;;;;;15.63;10.38;;;32.10;52.60;;;;;;5032915;28;20052;-65
2021/05/09 14:15:34;;;;;;;14.85;10.10;;;32.60;52.30;;;;;;5027186;28;20060;-59